sensor_id;sensor_type;location;lat;lon;timestamp;pressure;altitude;pressure_sealevel;temperature;humidity
60049;BME280;66154;45.544;6.756;2024-01-06T00:01:50;85635.50;;;0.70;74.94
60049;BME280;66154;45.544;6.756;2024-01-06T00:06:50;85635.50;;;0.70;75.26
60049;BME280;66154;45.544;6.756;2024-01-06T00:11:51;85644.78;;;0.68;75.52
60049;BME280;66154;45.544;6.756;2024-01-06T00:16:51;85639.28;;;0.66;78.20
60049;BME280;66154;45.544;6.756;2024-01-06T00:21:52;85641.16;;;0.65;77.49
60049;BME280;66154;45.544;6.756;2024-01-06T00:26:52;85644.44;;;0.66;75.02
60049;BME280;66154;45.544;6.756;2024-01-06T00:31:53;85646.75;;;0.60;77.25
60049;BME280;66154;45.544;6.756;2024-01-06T00:36:53;85649.75;;;0.59;80.48
60049;BME280;66154;45.544;6.756;2024-01-06T00:41:54;85651.97;;;0.57;76.25
60049;BME280;66154;45.544;6.756;2024-01-06T00:46:54;85652.72;;;0.57;75.67
60049;BME280;66154;45.544;6.756;2024-01-06T00:51:55;85650.88;;;0.58;76.84
60049;BME280;66154;45.544;6.756;2024-01-06T00:56:56;85649.41;;;0.57;76.05
60049;BME280;66154;45.544;6.756;2024-01-06T01:01:56;85640.91;;;0.56;76.05
60049;BME280;66154;45.544;6.756;2024-01-06T01:06:57;85642.44;;;0.54;75.00
60049;BME280;66154;45.544;6.756;2024-01-06T01:11:57;85648.09;;;0.45;74.29
60049;BME280;66154;45.544;6.756;2024-01-06T01:16:58;85658.94;;;0.37;83.15
60049;BME280;66154;45.544;6.756;2024-01-06T01:21:58;85662.31;;;0.34;78.10
60049;BME280;66154;45.544;6.756;2024-01-06T01:26:59;85665.25;;;0.36;81.24
60049;BME280;66154;45.544;6.756;2024-01-06T01:32:00;85667.50;;;0.34;77.28
60049;BME280;66154;45.544;6.756;2024-01-06T01:37:00;85674.13;;;0.35;77.74
60049;BME280;66154;45.544;6.756;2024-01-06T01:42:01;85675.91;;;0.38;78.34
60049;BME280;66154;45.544;6.756;2024-01-06T01:47:04;85679.63;;;0.37;76.61
60049;BME280;66154;45.544;6.756;2024-01-06T01:52:05;85687.38;;;0.37;77.45
60049;BME280;66154;45.544;6.756;2024-01-06T01:57:06;85687.00;;;0.38;80.84
60049;BME280;66154;45.544;6.756;2024-01-06T02:02:08;85695.13;;;0.37;77.89
60049;BME280;66154;45.544;6.756;2024-01-06T02:07:08;85692.66;;;0.30;76.63
60049;BME280;66154;45.544;6.756;2024-01-06T02:12:09;85691.22;;;0.25;78.25
60049;BME280;66154;45.544;6.756;2024-01-06T02:17:09;85688.28;;;0.27;75.75
60049;BME280;66154;45.544;6.756;2024-01-06T02:22:10;85686.41;;;0.27;76.15
60049;BME280;66154;45.544;6.756;2024-01-06T02:27:10;85684.16;;;0.29;77.31
60049;BME280;66154;45.544;6.756;2024-01-06T02:32:11;85690.75;;;0.34;75.82
60049;BME280;66154;45.544;6.756;2024-01-06T02:37:11;85688.16;;;0.34;75.76
60049;BME280;66154;45.544;6.756;2024-01-06T02:42:12;85683.72;;;0.34;76.64
60049;BME280;66154;45.544;6.756;2024-01-06T02:47:13;85688.91;;;0.34;75.20
60049;BME280;66154;45.544;6.756;2024-01-06T02:52:13;85690.00;;;0.33;76.87
60049;BME280;66154;45.544;6.756;2024-01-06T02:57:14;85688.16;;;0.34;77.29
60049;BME280;66154;45.544;6.756;2024-01-06T03:02:16;85684.47;;;0.35;77.77
60049;BME280;66154;45.544;6.756;2024-01-06T03:07:17;85693.34;;;0.34;81.12
60049;BME280;66154;45.544;6.756;2024-01-06T03:12:17;85690.75;;;0.34;78.39
60049;BME280;66154;45.544;6.756;2024-01-06T03:17:18;85693.72;;;0.32;78.74
60049;BME280;66154;45.544;6.756;2024-01-06T03:22:19;85697.41;;;0.31;81.27
60049;BME280;66154;45.544;6.756;2024-01-06T03:27:19;85692.66;;;0.30;77.65
60049;BME280;66154;45.544;6.756;2024-01-06T03:32:21;85689.78;;;0.24;76.27
60049;BME280;66154;45.544;6.756;2024-01-06T03:37:22;85689.78;;;0.24;77.08
60049;BME280;66154;45.544;6.756;2024-01-06T03:42:22;85686.47;;;0.24;78.09
60049;BME280;66154;45.544;6.756;2024-01-06T03:47:23;85688.34;;;0.23;78.33
60049;BME280;66154;45.544;6.756;2024-01-06T03:52:23;85693.09;;;0.25;77.35
60049;BME280;66154;45.544;6.756;2024-01-06T03:57:24;85690.88;;;0.27;77.02
60049;BME280;66154;45.544;6.756;2024-01-06T04:02:24;85703.78;;;0.27;76.34
60049;BME280;66154;45.544;6.756;2024-01-06T04:07:25;85697.88;;;0.26;81.50
60049;BME280;66154;45.544;6.756;2024-01-06T04:12:25;85699.78;;;0.22;80.03
60049;BME280;66154;45.544;6.756;2024-01-06T04:17:26;85701.28;;;0.20;75.84
60049;BME280;66154;45.544;6.756;2024-01-06T04:22:27;85697.59;;;0.21;76.18
60049;BME280;66154;45.544;6.756;2024-01-06T04:27:27;85696.84;;;0.20;76.88
60049;BME280;66154;45.544;6.756;2024-01-06T04:32:28;85695.41;;;0.19;76.93
60049;BME280;66154;45.544;6.756;2024-01-06T04:37:29;85697.25;;;0.19;76.47
60049;BME280;66154;45.544;6.756;2024-01-06T04:42:29;85692.47;;;0.17;77.26
60049;BME280;66154;45.544;6.756;2024-01-06T04:47:30;85695.78;;;0.18;77.93
60049;BME280;66154;45.544;6.756;2024-01-06T04:52:31;85689.50;;;0.19;76.74
60049;BME280;66154;45.544;6.756;2024-01-06T04:57:31;85693.19;;;0.18;75.29
60049;BME280;66154;45.544;6.756;2024-01-06T05:02:32;85693.19;;;0.18;77.91
60049;BME280;66154;45.544;6.756;2024-01-06T05:07:33;85690.94;;;0.20;77.68
60049;BME280;66154;45.544;6.756;2024-01-06T05:12:33;85689.09;;;0.20;76.49
60049;BME280;66154;45.544;6.756;2024-01-06T05:17:34;85690.56;;;0.21;75.52
60049;BME280;66154;45.544;6.756;2024-01-06T05:22:34;85693.53;;;0.20;76.79
60049;BME280;66154;45.544;6.756;2024-01-06T05:27:35;85701.28;;;0.20;85.18
60049;BME280;66154;45.544;6.756;2024-01-06T05:32:37;85705.06;;;0.15;83.78
60049;BME280;66154;45.544;6.756;2024-01-06T05:37:38;85699.16;;;0.15;81.47
60049;BME280;66154;45.544;6.756;2024-01-06T05:42:38;85704.38;;;0.11;84.49
60049;BME280;66154;45.544;6.756;2024-01-06T05:47:39;85708.75;;;0.14;78.80
60049;BME280;66154;45.544;6.756;2024-01-06T05:52:39;85709.44;;;0.18;79.89
60049;BME280;66154;45.544;6.756;2024-01-06T05:57:40;85707.19;;;0.20;81.99
60049;BME280;66154;45.544;6.756;2024-01-06T06:02:40;85696.44;;;0.22;79.02
60049;BME280;66154;45.544;6.756;2024-01-06T06:07:41;85710.06;;;0.26;78.02
60049;BME280;66154;45.544;6.756;2024-01-06T06:12:42;85704.50;;;0.27;76.82
60049;BME280;66154;45.544;6.756;2024-01-06T06:17:43;85706.72;;;0.29;75.75
60049;BME280;66154;45.544;6.756;2024-01-06T06:22:44;85709.28;;;0.29;77.91
60049;BME280;66154;45.544;6.756;2024-01-06T06:27:44;85706.72;;;0.29;77.17
60049;BME280;66154;45.544;6.756;2024-01-06T06:32:45;85711.88;;;0.29;77.11
60049;BME280;66154;45.544;6.756;2024-01-06T06:37:46;85712.97;;;0.28;77.94
60049;BME280;66154;45.544;6.756;2024-01-06T06:42:47;85719.28;;;0.27;78.67
60049;BME280;66154;45.544;6.756;2024-01-06T06:47:51;85731.47;;;0.26;80.49
60049;BME280;66154;45.544;6.756;2024-01-06T06:52:51;85734.06;;;0.26;82.03
60049;BME280;66154;45.544;6.756;2024-01-06T06:57:53;85734.09;;;0.23;82.99
60049;BME280;66154;45.544;6.756;2024-01-06T07:02:54;85733.41;;;0.19;75.86
60049;BME280;66154;45.544;6.756;2024-01-06T07:07:54;85738.63;;;0.15;76.08
60049;BME280;66154;45.544;6.756;2024-01-06T07:12:55;85743.50;;;0.10;78.13
60049;BME280;66154;45.544;6.756;2024-01-06T07:17:55;85732.38;;;0.13;78.64
60049;BME280;66154;45.544;6.756;2024-01-06T07:22:56;85735.66;;;0.17;79.27
60049;BME280;66154;45.544;6.756;2024-01-06T07:27:56;85737.09;;;0.21;79.43
60049;BME280;66154;45.544;6.756;2024-01-06T07:32:58;85747.72;;;0.27;83.19
60049;BME280;66154;45.544;6.756;2024-01-06T07:37:58;85749.94;;;0.25;78.27
60049;BME280;66154;45.544;6.756;2024-01-06T07:43:00;85747.03;;;0.23;75.27
60049;BME280;66154;45.544;6.756;2024-01-06T07:48:00;85760.00;;;0.19;78.38
60049;BME280;66154;45.544;6.756;2024-01-06T07:53:01;85762.94;;;0.21;75.77
60049;BME280;66154;45.544;6.756;2024-01-06T07:58:02;85771.03;;;0.20;77.72
60049;BME280;66154;45.544;6.756;2024-01-06T08:03:03;85773.63;;;0.20;78.61
60049;BME280;66154;45.544;6.756;2024-01-06T08:08:06;85766.22;;;0.22;76.83
60049;BME280;66154;45.544;6.756;2024-01-06T08:13:06;85769.50;;;0.26;77.64
60049;BME280;66154;45.544;6.756;2024-01-06T08:18:07;85766.16;;;0.29;78.85
60049;BME280;66154;45.544;6.756;2024-01-06T08:23:07;85771.22;;;0.36;78.91
60049;BME280;66154;45.544;6.756;2024-01-06T08:28:08;85772.28;;;0.38;82.22
60049;BME280;66154;45.544;6.756;2024-01-06T08:33:09;85777.88;;;0.33;79.78
60049;BME280;66154;45.544;6.756;2024-01-06T08:38:10;85772.00;;;0.33;80.01
60049;BME280;66154;45.544;6.756;2024-01-06T08:43:10;85783.16;;;0.26;90.92
60049;BME280;66154;45.544;6.756;2024-01-06T08:48:11;85783.25;;;0.19;89.15
60049;BME280;66154;45.544;6.756;2024-01-06T08:53:13;85788.78;;;0.18;84.19
60049;BME280;66154;45.544;6.756;2024-01-06T08:58:14;85786.88;;;0.22;80.61
60049;BME280;66154;45.544;6.756;2024-01-06T09:03:14;85785.34;;;0.28;79.43
60049;BME280;66154;45.544;6.756;2024-01-06T09:08:15;85784.56;;;0.31;77.13
60049;BME280;66154;45.544;6.756;2024-01-06T09:13:15;85791.94;;;0.32;83.99
60049;BME280;66154;45.544;6.756;2024-01-06T09:18:16;85794.19;;;0.30;76.95
60049;BME280;66154;45.544;6.756;2024-01-06T09:23:17;85794.91;;;0.31;83.03
60049;BME280;66154;45.544;6.756;2024-01-06T09:28:18;85797.16;;;0.29;76.14
60049;BME280;66154;45.544;6.756;2024-01-06T09:33:19;85796.38;;;0.32;80.28
60049;BME280;66154;45.544;6.756;2024-01-06T09:38:19;85804.47;;;0.34;76.26
60049;BME280;66154;45.544;6.756;2024-01-06T09:43:20;85809.63;;;0.34;76.95
60049;BME280;66154;45.544;6.756;2024-01-06T09:48:22;85818.81;;;0.38;82.76
60049;BME280;66154;45.544;6.756;2024-01-06T09:53:34;85813.66;;;0.38;83.34
60049;BME280;66154;45.544;6.756;2024-01-06T09:58:37;85811.78;;;0.39;82.94
60049;BME280;66154;45.544;6.756;2024-01-06T10:03:39;85809.53;;;0.41;76.60
60049;BME280;66154;45.544;6.756;2024-01-06T10:08:42;85805.50;;;0.40;76.08
60049;BME280;66154;45.544;6.756;2024-01-06T10:13:43;85807.00;;;0.37;77.16
60049;BME280;66154;45.544;6.756;2024-01-06T10:18:45;85805.84;;;0.42;76.37
60049;BME280;66154;45.544;6.756;2024-01-06T10:23:47;85805.03;;;0.45;78.65
60049;BME280;66154;45.544;6.756;2024-01-06T10:28:48;85814.22;;;0.49;76.76
60049;BME280;66154;45.544;6.756;2024-01-06T10:33:50;85804.91;;;0.55;76.75
60049;BME280;66154;45.544;6.756;2024-01-06T10:38:52;85794.53;;;0.59;76.88
60049;BME280;66154;45.544;6.756;2024-01-06T10:43:54;85791.16;;;0.62;78.69
60049;BME280;66154;45.544;6.756;2024-01-06T10:48:57;85791.06;;;0.69;79.19
60049;BME280;66154;45.544;6.756;2024-01-06T10:54:00;85789.09;;;0.76;78.38
60049;BME280;66154;45.544;6.756;2024-01-06T10:59:03;85780.19;;;0.81;78.62
60049;BME280;66154;45.544;6.756;2024-01-06T11:04:03;85775.66;;;0.85;81.75
60049;BME280;66154;45.544;6.756;2024-01-06T11:09:30;85776.34;;;0.89;78.70
60049;BME280;66154;45.544;6.756;2024-01-06T11:14:37;85772.94;;;0.96;76.60
60049;BME280;66154;45.544;6.756;2024-01-06T11:24:43;85763.06;;;0.87;86.00
60049;BME280;66154;45.544;6.756;2024-01-06T11:29:47;85763.97;;;0.77;79.35
60049;BME280;66154;45.544;6.756;2024-01-06T11:34:49;85762.09;;;0.77;79.13
60049;BME280;66154;45.544;6.756;2024-01-06T11:39:50;85758.47;;;0.75;80.92
60049;BME280;66154;45.544;6.756;2024-01-06T11:44:51;85755.88;;;0.75;75.89
60049;BME280;66154;45.544;6.756;2024-01-06T11:49:54;85753.72;;;0.70;77.05
60049;BME280;66154;45.544;6.756;2024-01-06T11:54:56;85751.94;;;0.67;75.85
60049;BME280;66154;45.544;6.756;2024-01-06T11:59:57;85745.25;;;0.69;79.33
60049;BME280;66154;45.544;6.756;2024-01-06T12:04:58;85741.47;;;0.74;77.31
60049;BME280;66154;45.544;6.756;2024-01-06T12:10:03;85742.63;;;0.73;76.48
60049;BME280;66154;45.544;6.756;2024-01-06T12:15:04;85739.63;;;0.74;77.28
60049;BME280;66154;45.544;6.756;2024-01-06T12:20:05;85731.75;;;0.81;77.33
60049;BME280;66154;45.544;6.756;2024-01-06T12:25:09;85726.09;;;0.90;77.86
60049;BME280;66154;45.544;6.756;2024-01-06T12:30:18;85722.63;;;0.97;78.17
60049;BME280;66154;45.544;6.756;2024-01-06T12:35:21;85724.09;;;0.98;80.61
60049;BME280;66154;45.544;6.756;2024-01-06T12:40:23;85723.03;;;0.95;83.03
60049;BME280;66154;45.544;6.756;2024-01-06T12:45:23;85716.13;;;0.88;79.95
60049;BME280;66154;45.544;6.756;2024-01-06T12:50:24;85719.50;;;0.85;76.62
60049;BME280;66154;45.544;6.756;2024-01-06T12:55:24;85719.50;;;0.85;76.65
60049;BME280;66154;45.544;6.756;2024-01-06T13:00:25;85714.66;;;0.87;76.62
60049;BME280;66154;45.544;6.756;2024-01-06T13:05:26;85718.75;;;0.85;77.27
60049;BME280;66154;45.544;6.756;2024-01-06T13:10:26;85723.94;;;0.85;78.03
60049;BME280;66154;45.544;6.756;2024-01-06T13:15:27;85716.97;;;0.82;79.85
60049;BME280;66154;45.544;6.756;2024-01-06T13:20:27;85719.94;;;0.80;79.50
60049;BME280;66154;45.544;6.756;2024-01-06T13:25:28;85719.50;;;0.85;80.08
60049;BME280;66154;45.544;6.756;2024-01-06T13:30:29;85719.41;;;0.93;79.27
60049;BME280;66154;45.544;6.756;2024-01-06T13:35:29;85722.25;;;0.98;79.35
60049;BME280;66154;45.544;6.756;2024-01-06T13:40:31;85723.31;;;1.01;80.93
60049;BME280;66154;45.544;6.756;2024-01-06T13:45:32;85724.88;;;0.94;79.98
60049;BME280;66154;45.544;6.756;2024-01-06T13:50:32;85723.03;;;0.95;81.09
60049;BME280;66154;45.544;6.756;2024-01-06T13:55:33;85728.22;;;0.95;79.92
60049;BME280;66154;45.544;6.756;2024-01-06T14:00:34;85728.16;;;0.99;79.92
60049;BME280;66154;45.544;6.756;2024-01-06T14:05:34;85732.09;;;1.07;80.19
60049;BME280;66154;45.544;6.756;2024-01-06T14:10:35;85733.94;;;1.06;80.25
60049;BME280;66154;45.544;6.756;2024-01-06T14:15:38;85729.16;;;1.05;79.66
60049;BME280;66154;45.544;6.756;2024-01-06T14:20:38;85729.56;;;1.03;79.23
60049;BME280;66154;45.544;6.756;2024-01-06T14:25:40;85740.31;;;1.02;79.35
60049;BME280;66154;45.544;6.756;2024-01-06T14:30:41;85748.06;;;1.02;77.33
60049;BME280;66154;45.544;6.756;2024-01-06T14:35:41;85740.31;;;1.02;79.90
60049;BME280;66154;45.544;6.756;2024-01-06T14:40:44;85745.22;;;0.96;77.31
60049;BME280;66154;45.544;6.756;2024-01-06T14:45:44;85749.38;;;0.90;76.37
60049;BME280;66154;45.544;6.756;2024-01-06T14:50:45;85748.81;;;0.79;83.17
60049;BME280;66154;45.544;6.756;2024-01-06T14:55:45;85754.81;;;0.72;76.56
60049;BME280;66154;45.544;6.756;2024-01-06T15:00:46;85764.47;;;0.68;77.89
60049;BME280;66154;45.544;6.756;2024-01-06T15:05:47;85751.53;;;0.68;79.00
60049;BME280;66154;45.544;6.756;2024-01-06T15:10:47;85756.72;;;0.68;79.29
60049;BME280;66154;45.544;6.756;2024-01-06T15:15:48;85758.22;;;0.66;78.33
60049;BME280;66154;45.544;6.756;2024-01-06T15:20:50;85756.38;;;0.66;77.59
60049;BME280;66154;45.544;6.756;2024-01-06T15:25:51;85767.84;;;0.65;78.15
60049;BME280;66154;45.544;6.756;2024-01-06T15:30:52;85766.78;;;0.63;80.17
60049;BME280;66154;45.544;6.756;2024-01-06T15:35:52;85773.84;;;0.59;81.87
60049;BME280;66154;45.544;6.756;2024-01-06T15:40:53;85771.66;;;0.57;79.29
60049;BME280;66154;45.544;6.756;2024-01-06T15:45:54;85772.75;;;0.56;79.34
60049;BME280;66154;45.544;6.756;2024-01-06T15:50:55;85777.22;;;0.56;78.34
60049;BME280;66154;45.544;6.756;2024-01-06T15:55:55;85774.63;;;0.56;79.20
60049;BME280;66154;45.544;6.756;2024-01-06T16:00:56;85781.03;;;0.48;77.92
60049;BME280;66154;45.544;6.756;2024-01-06T16:05:56;85777.41;;;0.42;78.30
60049;BME280;66154;45.544;6.756;2024-01-06T16:10:57;85773.34;;;0.41;78.20
60049;BME280;66154;45.544;6.756;2024-01-06T16:15:58;85776.72;;;0.38;76.85
60049;BME280;66154;45.544;6.756;2024-01-06T16:20:59;85783.78;;;0.34;77.50
60049;BME280;66154;45.544;6.756;2024-01-06T16:26:01;85787.50;;;0.33;82.80
60049;BME280;66154;45.544;6.756;2024-01-06T16:31:02;85796.41;;;0.28;79.15
60049;BME280;66154;45.544;6.756;2024-01-06T16:36:03;85789.81;;;0.24;78.68
60049;BME280;66154;45.544;6.756;2024-01-06T16:41:05;85796.13;;;0.23;80.70
60049;BME280;66154;45.544;6.756;2024-01-06T16:46:06;85790.69;;;0.14;77.99
60049;BME280;66154;45.544;6.756;2024-01-06T16:51:08;85794.06;;;0.11;76.89
60049;BME280;66154;45.544;6.756;2024-01-06T16:56:10;85792.59;;;0.10;79.62
60049;BME280;66154;45.544;6.756;2024-01-06T17:01:10;85802.94;;;0.10;78.28
60049;BME280;66154;45.544;6.756;2024-01-06T17:06:11;85799.97;;;0.11;79.24
60049;BME280;66154;45.544;6.756;2024-01-06T17:11:12;85801.00;;;0.14;77.09
60049;BME280;66154;45.544;6.756;2024-01-06T17:16:12;85806.56;;;0.12;77.09
60049;BME280;66154;45.544;6.756;2024-01-06T17:21:13;85806.28;;;0.07;77.75
60049;BME280;66154;45.544;6.756;2024-01-06T17:26:16;85808.47;;;0.08;79.39
60049;BME280;66154;45.544;6.756;2024-01-06T17:31:16;85813.28;;;0.06;77.75
60049;BME280;66154;45.544;6.756;2024-01-06T17:36:17;85808.50;;;0.05;78.21
60049;BME280;66154;45.544;6.756;2024-01-06T17:41:17;85808.50;;;0.05;78.88
60049;BME280;66154;45.544;6.756;2024-01-06T17:46:18;85814.41;;;0.05;78.90
60049;BME280;66154;45.544;6.756;2024-01-06T17:51:21;85812.94;;;0.04;77.19
60049;BME280;66154;45.544;6.756;2024-01-06T17:56:26;85814.47;;;0.02;77.34
60049;BME280;66154;45.544;6.756;2024-01-06T18:01:27;85813.38;;;-0.01;78.96
60049;BME280;66154;45.544;6.756;2024-01-06T18:06:28;85811.13;;;0.01;78.16
60049;BME280;66154;45.544;6.756;2024-01-06T18:11:30;85811.88;;;0.02;79.25
60049;BME280;66154;45.544;6.756;2024-01-06T18:16:30;85808.16;;;0.03;77.36
60049;BME280;66154;45.544;6.756;2024-01-06T18:21:31;85807.81;;;0.00;79.29
60049;BME280;66154;45.544;6.756;2024-01-06T18:26:32;85802.31;;;-0.02;79.23
60049;BME280;66154;45.544;6.756;2024-01-06T18:31:32;85801.97;;;-0.04;79.33
60049;BME280;66154;45.544;6.756;2024-01-06T18:36:34;85804.19;;;-0.06;80.36
60049;BME280;66154;45.544;6.756;2024-01-06T18:41:34;85803.47;;;-0.06;80.86
60049;BME280;66154;45.544;6.756;2024-01-06T18:46:38;85801.31;;;-0.11;81.57
60049;BME280;66154;45.544;6.756;2024-01-06T18:51:40;85795.84;;;-0.17;77.21
60049;BME280;66154;45.544;6.756;2024-01-06T18:56:41;85795.84;;;-0.17;78.79
60049;BME280;66154;45.544;6.756;2024-01-06T19:01:41;85793.25;;;-0.17;77.90
60049;BME280;66154;45.544;6.756;2024-01-06T19:06:43;85792.53;;;-0.17;78.45
60049;BME280;66154;45.544;6.756;2024-01-06T19:11:44;85798.81;;;-0.18;79.35
60049;BME280;66154;45.544;6.756;2024-01-06T19:16:44;85799.56;;;-0.18;79.72
60049;BME280;66154;45.544;6.756;2024-01-06T19:21:46;85790.34;;;-0.19;76.85
60049;BME280;66154;45.544;6.756;2024-01-06T19:26:46;85798.88;;;-0.22;78.37
60049;BME280;66154;45.544;6.756;2024-01-06T19:31:47;85788.53;;;-0.22;77.81
60049;BME280;66154;45.544;6.756;2024-01-06T19:36:47;85800.72;;;-0.22;78.71
60049;BME280;66154;45.544;6.756;2024-01-06T19:41:48;85797.00;;;-0.21;79.45
60049;BME280;66154;45.544;6.756;2024-01-06T19:46:48;85801.06;;;-0.20;79.84
60049;BME280;66154;45.544;6.756;2024-01-06T19:51:49;85806.59;;;-0.22;83.18
60049;BME280;66154;45.544;6.756;2024-01-06T19:56:50;85801.44;;;-0.22;78.91
60049;BME280;66154;45.544;6.756;2024-01-06T20:01:51;85796.28;;;-0.22;78.03
60049;BME280;66154;45.544;6.756;2024-01-06T20:06:52;85806.25;;;-0.24;77.60
60049;BME280;66154;45.544;6.756;2024-01-06T20:11:52;85791.19;;;-0.29;78.55
60049;BME280;66154;45.544;6.756;2024-01-06T20:16:53;85802.63;;;-0.30;78.97
60049;BME280;66154;45.544;6.756;2024-01-06T20:21:56;85798.56;;;-0.31;79.00
60049;BME280;66154;45.544;6.756;2024-01-06T20:26:56;85793.75;;;-0.29;79.01
60049;BME280;66154;45.544;6.756;2024-01-06T20:31:57;85800.06;;;-0.30;77.85
60049;BME280;66154;45.544;6.756;2024-01-06T20:36:57;85797.88;;;-0.35;79.94
60049;BME280;66154;45.544;6.756;2024-01-06T20:41:58;85806.41;;;-0.38;78.66
60049;BME280;66154;45.544;6.756;2024-01-06T20:46:59;85796.50;;;-0.43;79.46
60049;BME280;66154;45.544;6.756;2024-01-06T20:52:00;85797.25;;;-0.46;78.16
60049;BME280;66154;45.544;6.756;2024-01-06T20:57:01;85787.75;;;-0.52;79.23
60049;BME280;66154;45.544;6.756;2024-01-06T21:02:01;85785.53;;;-0.54;76.95
60049;BME280;66154;45.544;6.756;2024-01-06T21:07:03;85784.13;;;-0.58;79.22
60049;BME280;66154;45.544;6.756;2024-01-06T21:12:04;85790.34;;;-0.56;77.90
60049;BME280;66154;45.544;6.756;2024-01-06T21:17:04;85781.19;;;-0.60;78.24
60049;BME280;66154;45.544;6.756;2024-01-06T21:22:05;85784.19;;;-0.62;76.82
60049;BME280;66154;45.544;6.756;2024-01-06T21:27:05;85779.75;;;-0.65;78.16
60049;BME280;66154;45.544;6.756;2024-01-06T21:32:06;85780.50;;;-0.64;78.97
60049;BME280;66154;45.544;6.756;2024-01-06T21:37:07;85776.44;;;-0.62;77.95
60049;BME280;66154;45.544;6.756;2024-01-06T21:42:07;85773.50;;;-0.64;79.58
60049;BME280;66154;45.544;6.756;2024-01-06T21:47:08;85775.69;;;-0.62;77.13
60049;BME280;66154;45.544;6.756;2024-01-06T21:52:08;85770.56;;;-0.66;78.27
60049;BME280;66154;45.544;6.756;2024-01-06T21:57:09;85772.06;;;-0.68;77.31
60049;BME280;66154;45.544;6.756;2024-01-06T22:02:10;85770.22;;;-0.68;78.11
60049;BME280;66154;45.544;6.756;2024-01-06T22:07:11;85773.16;;;-0.69;77.27
60049;BME280;66154;45.544;6.756;2024-01-06T22:12:12;85770.28;;;-0.75;78.28
60049;BME280;66154;45.544;6.756;2024-01-06T22:17:13;85773.97;;;-0.76;77.29
60049;BME280;66154;45.544;6.756;2024-01-06T22:22:14;85773.25;;;-0.76;78.60
60049;BME280;66154;45.544;6.756;2024-01-06T22:27:14;85771.06;;;-0.78;77.74
60049;BME280;66154;45.544;6.756;2024-01-06T22:32:15;85775.09;;;-0.77;77.25
60049;BME280;66154;45.544;6.756;2024-01-06T22:37:16;85771.44;;;-0.79;77.02
60049;BME280;66154;45.544;6.756;2024-01-06T22:42:16;85773.66;;;-0.81;77.52
60049;BME280;66154;45.544;6.756;2024-01-06T22:47:17;85776.66;;;-0.83;79.34
60049;BME280;66154;45.544;6.756;2024-01-06T22:52:18;85771.09;;;-0.81;79.28
60049;BME280;66154;45.544;6.756;2024-01-06T22:57:19;85768.88;;;-0.79;79.04
60049;BME280;66154;45.544;6.756;2024-01-06T23:02:20;85779.53;;;-0.81;81.18
60049;BME280;66154;45.544;6.756;2024-01-06T23:07:20;85764.84;;;-0.84;80.03
60049;BME280;66154;45.544;6.756;2024-01-06T23:12:21;85772.53;;;-0.80;77.71
60049;BME280;66154;45.544;6.756;2024-01-06T23:17:21;85781.03;;;-0.80;77.32
60049;BME280;66154;45.544;6.756;2024-01-06T23:22:22;85775.16;;;-0.84;77.60
60049;BME280;66154;45.544;6.756;2024-01-06T23:27:23;85776.28;;;-0.85;79.30
60049;BME280;66154;45.544;6.756;2024-01-06T23:32:23;85775.59;;;-0.89;78.63
60049;BME280;66154;45.544;6.756;2024-01-06T23:37:24;85776.69;;;-0.90;78.28
60049;BME280;66154;45.544;6.756;2024-01-06T23:42:24;85780.75;;;-0.89;78.11
60049;BME280;66154;45.544;6.756;2024-01-06T23:47:27;85779.28;;;-0.90;80.02
60049;BME280;66154;45.544;6.756;2024-01-06T23:52:28;85782.63;;;-0.93;77.60
60049;BME280;66154;45.544;6.756;2024-01-06T23:57:28;85784.06;;;-0.92;79.01
